Time;durP1;ratioP1;P1;durP2;ratioP2;P2;SDS_P1;SDS_P2;PMS_P1;PMS_P2;Temp;Humidity;BMP_temperature;BMP_pressure;BME280_temperature;BME280_humidity;BME280_pressure;Samples;Min_cycle;Max_cycle;Signal;HPM_P1;HPM_P2
2022/11/25 00:00:31;;;;;;;16.63;3.70;;;;;;;6.77;100.00;100774.69;10412832;28;20120;-85
2022/11/25 00:05:31;;;;;;;14.63;4.95;;;;;;;6.92;100.00;100774.72;10399559;28;20045;-86
2022/11/25 00:10:32;;;;;;;14.38;3.83;;;;;;;6.93;100.00;100763.50;10399711;28;20034;-86
2022/11/25 00:15:32;;;;;;;16.67;3.53;;;;;;;6.81;100.00;100766.28;10399882;28;20528;-86
2022/11/25 00:20:33;;;;;;;10.82;4.00;;;;;;;6.78;100.00;100758.28;10396992;28;20037;-86
2022/11/25 00:25:34;;;;;;;11.23;3.47;;;;;;;6.85;100.00;100767.34;10383009;28;20087;-86
2022/11/25 00:30:34;;;;;;;14.05;4.47;;;;;;;6.82;100.00;100748.94;10426172;28;20033;-85
2022/11/25 00:35:35;;;;;;;14.88;3.35;;;;;;;6.85;100.00;100750.06;10419493;28;20049;-82
2022/11/25 00:40:35;;;;;;;10.43;3.42;;;;;;;6.84;100.00;100745.66;10408809;28;20053;-85
2022/11/25 00:45:36;;;;;;;11.60;4.47;;;;;;;6.86;100.00;100741.44;10397901;28;20544;-85
2022/11/25 00:50:36;;;;;;;23.60;3.60;;;;;;;6.88;100.00;100729.44;10410568;28;20033;-84
2022/11/25 00:56:11;;;;;;;12.38;3.90;;;;;;;6.87;100.00;100721.50;10446841;28;20080;-85
2022/11/25 01:01:00;;;;;;;16.88;3.83;;;;;;;6.80;100.00;100730.66;10420459;28;20046;-84
2022/11/25 01:06:02;;;;;;;19.92;5.13;;;;;;;6.72;100.00;100724.97;10405265;28;20041;-85
2022/11/25 01:11:07;;;;;;;9.30;3.07;;;;;;;6.68;100.00;100728.19;10406973;28;20088;-84
2022/11/25 01:16:10;;;;;;;19.90;4.82;;;;;;;6.71;100.00;100730.13;10429223;28;20477;-84
2022/11/25 01:21:15;;;;;;;12.13;3.58;;;;;;;6.69;100.00;100731.72;10445880;28;20033;-84
2022/11/25 01:26:18;;;;;;;14.93;5.35;;;;;;;6.86;100.00;100727.53;10433900;28;20099;-84
2022/11/25 01:31:18;;;;;;;;;;;;;;;6.90;100.00;100738.22;10428645;28;20056;-84
2022/11/25 01:36:19;;;;;;;12.55;4.30;;;;;;;6.92;100.00;100745.22;10405934;28;20004;-84
2022/11/25 01:41:20;;;;;;;18.08;4.30;;;;;;;6.86;100.00;100761.34;10425064;28;20057;-84
2022/11/25 01:46:28;;;;;;;8.73;3.30;;;;;;;6.89;100.00;100764.13;10404041;28;20049;-84
2022/11/25 01:51:38;;;;;;;18.58;3.92;;;;;;;7.04;100.00;100775.47;10442209;28;20044;-84
2022/11/25 01:56:42;;;;;;;13.95;4.07;;;;;;;7.23;100.00;100778.28;10483473;28;20033;-84
2022/11/25 02:01:43;;;;;;;12.55;3.88;;;;;;;7.25;100.00;100785.38;10444122;28;20069;-84
2022/11/25 02:07:14;;;;;;;11.55;3.50;;;;;;;7.23;100.00;100781.78;10442256;28;20127;-84
2022/11/25 02:12:16;;;;;;;13.52;4.38;;;;;;;7.35;100.00;100786.84;10460702;28;20040;-84
2022/11/25 02:17:16;;;;;;;11.27;3.70;;;;;;;7.60;100.00;100783.94;10468693;28;20459;-85
2022/11/25 02:22:26;;;;;;;11.68;4.43;;;;;;;7.69;100.00;100780.09;10466273;28;20090;-84
2022/11/25 02:27:26;;;;;;;13.00;3.78;;;;;;;7.74;100.00;100776.94;10468661;28;20071;-84
2022/11/25 02:32:27;;;;;;;21.17;7.57;;;;;;;7.94;100.00;100774.59;10443956;28;20519;-85
2022/11/25 02:37:27;;;;;;;16.88;2.92;;;;;;;8.06;100.00;100772.69;10442950;28;20041;-84
2022/11/25 02:42:28;;;;;;;12.38;3.83;;;;;;;8.15;100.00;100785.31;10440374;28;20120;-86
2022/11/25 02:47:28;;;;;;;14.15;4.07;;;;;;;7.98;100.00;100799.09;10427257;28;20086;-90
2022/11/25 02:52:29;;;;;;;12.90;4.10;;;;;;;7.82;100.00;100816.47;10459462;28;20045;-90
2022/11/25 02:57:29;;;;;;;24.02;6.57;;;;;;;7.76;100.00;100826.53;10444769;28;20434;-89
2022/11/25 03:02:30;;;;;;;22.67;3.85;;;;;;;7.67;100.00;100837.31;10440764;28;20036;-89
2022/11/25 03:07:30;;;;;;;18.33;5.68;;;;;;;7.60;100.00;100850.78;10448918;28;20059;-87
2022/11/25 03:12:31;;;;;;;24.95;5.70;;;;;;;7.58;100.00;100862.81;10476220;28;20048;-88
2022/11/25 03:17:32;;;;;;;20.10;7.25;;;;;;;7.54;100.00;100861.72;10464098;28;20119;-89
2022/11/25 03:22:32;;;;;;;15.93;5.47;;;;;;;7.42;100.00;100868.81;10483545;28;20041;-87
2022/11/25 03:27:33;;;;;;;10.88;4.28;;;;;;;7.32;100.00;100873.47;10464774;28;20135;-87
2022/11/25 03:32:33;;;;;;;18.75;4.65;;;;;;;7.38;100.00;100875.56;10460712;28;20052;-88
2022/11/25 03:37:34;;;;;;;20.30;5.30;;;;;;;7.28;100.00;100879.28;10456686;28;20486;-89
2022/11/25 03:42:34;;;;;;;15.95;4.40;;;;;;;7.29;100.00;100872.38;10462523;28;20043;-88
2022/11/25 03:47:35;;;;;;;12.23;2.55;;;;;;;7.15;100.00;100867.22;10440039;28;20110;-88
2022/11/25 03:52:36;;;;;;;7.90;2.85;;;;;;;7.01;100.00;100853.34;10448143;28;20037;-92
2022/11/25 03:57:36;;;;;;;10.02;3.55;;;;;;;6.92;100.00;100850.19;10441689;28;20051;-93
2022/11/25 04:02:37;;;;;;;9.52;2.78;;;;;;;6.84;100.00;100851.41;10481466;28;20462;-92
2022/11/25 04:07:37;;;;;;;14.52;4.63;;;;;;;6.80;100.00;100820.81;10441985;28;20043;-88
2022/11/25 04:12:46;;;;;;;15.68;4.22;;;;;;;6.79;100.00;100839.81;10459412;28;20048;-89
2022/11/25 04:17:47;;;;;;;17.33;3.60;;;;;;;6.81;100.00;100833.91;10456329;28;20032;-88
2022/11/25 04:22:47;;;;;;;8.10;2.95;;;;;;;6.70;100.00;100846.25;10443816;28;20037;-87
2022/11/25 04:27:48;;;;;;;11.80;3.85;;;;;;;6.66;100.00;100872.84;10447785;28;20051;-87
2022/11/25 04:32:48;;;;;;;9.15;2.15;;;;;;;6.54;100.00;100896.41;10452048;28;20029;-87
2022/11/25 04:37:49;;;;;;;9.13;2.47;;;;;;;6.45;100.00;100895.81;10488894;28;20047;-87
2022/11/25 04:42:49;;;;;;;13.93;3.15;;;;;;;6.41;100.00;100925.00;10468707;28;20485;-88
2022/11/25 04:47:50;;;;;;;9.93;2.72;;;;;;;6.48;100.00;100932.41;10447376;28;20507;-87
2022/11/25 04:52:51;;;;;;;10.30;2.88;;;;;;;6.52;100.00;100941.28;10447088;28;20033;-87
2022/11/25 04:57:51;;;;;;;7.35;2.17;;;;;;;6.59;100.00;100947.00;10447034;28;20060;-87
2022/11/25 05:02:52;;;;;;;14.30;3.25;;;;;;;6.58;100.00;100944.28;10445799;28;20076;-88
2022/11/25 05:07:52;;;;;;;10.63;3.20;;;;;;;6.53;100.00;100946.59;10429760;28;20485;-88
2022/11/25 05:12:53;;;;;;;6.13;2.85;;;;;;;6.48;100.00;100963.59;10445352;28;20033;-87
2022/11/25 05:17:53;;;;;;;8.38;2.03;;;;;;;6.40;100.00;100957.00;10447355;28;20084;-88
2022/11/25 05:22:54;;;;;;;9.50;3.88;;;;;;;6.37;100.00;100965.47;10463820;28;20476;-89
2022/11/25 05:27:54;;;;;;;19.67;2.50;;;;;;;6.23;100.00;100958.47;10462970;28;20053;-87
2022/11/25 05:32:55;;;;;;;8.15;2.40;;;;;;;6.02;100.00;100962.34;10466262;28;20531;-87
2022/11/25 05:37:55;;;;;;;6.43;1.10;;;;;;;5.99;100.00;100963.78;10487076;28;20060;-88
2022/11/25 05:42:59;;;;;;;14.07;3.10;;;;;;;5.87;100.00;100969.94;10469361;28;20531;-87
2022/11/25 05:47:59;;;;;;;33.15;3.90;;;;;;;5.62;100.00;100963.88;10451436;28;20036;-86
2022/11/25 05:53:00;;;;;;;6.05;4.45;;;;;;;5.45;100.00;100966.19;10459978;28;20128;-88
2022/11/25 05:58:01;;;;;;;7.22;4.13;;;;;;;5.34;100.00;100972.31;10429378;28;20059;-87
2022/11/25 06:03:02;;;;;;;8.73;4.20;;;;;;;5.42;100.00;100986.75;10408442;28;20044;-88
2022/11/25 06:08:03;;;;;;;26.52;5.25;;;;;;;5.62;100.00;100998.53;10427372;28;20124;-84
2022/11/25 06:13:03;;;;;;;13.00;4.38;;;;;;;5.46;100.00;100996.53;10424793;28;20037;-84
2022/11/25 06:18:04;;;;;;;9.95;3.60;;;;;;;5.44;100.00;101000.72;10433507;28;20045;-89
2022/11/25 06:23:05;;;;;;;15.60;4.35;;;;;;;5.21;100.00;100992.22;10438639;28;20049;-87
2022/11/25 06:28:06;;;;;;;12.43;5.30;;;;;;;5.20;100.00;100994.72;10424615;28;20041;-87
2022/11/25 06:33:08;;;;;;;11.23;4.93;;;;;;;5.24;100.00;101010.59;10418746;28;20079;-85
2022/11/25 06:38:11;;;;;;;16.88;5.68;;;;;;;5.15;100.00;101020.31;10438707;28;20097;-84
2022/11/25 06:43:12;;;;;;;16.92;6.63;;;;;;;5.19;100.00;101034.44;10432731;28;20135;-84
2022/11/25 06:48:12;;;;;;;20.33;6.00;;;;;;;5.16;100.00;101040.28;10397473;28;20038;-84
2022/11/25 06:53:13;;;;;;;19.60;6.60;;;;;;;5.10;100.00;101034.66;10424242;28;20040;-85
2022/11/25 06:58:14;;;;;;;13.80;4.57;;;;;;;5.14;100.00;101049.66;10443245;28;20487;-84
2022/11/25 07:03:15;;;;;;;17.00;6.13;;;;;;;5.16;100.00;101053.25;10424119;28;20410;-85
2022/11/25 07:08:16;;;;;;;16.10;5.50;;;;;;;5.06;100.00;101054.28;10390592;28;20048;-84
2022/11/25 07:13:17;;;;;;;22.30;6.82;;;;;;;5.07;100.00;101068.16;10440152;28;20481;-94
2022/11/25 07:18:17;;;;;;;16.15;6.18;;;;;;;5.35;100.00;101088.31;10417334;28;20044;-82
2022/11/25 07:23:18;;;;;;;14.18;5.85;;;;;;;5.31;100.00;101087.22;10438271;28;20072;-83
2022/11/25 07:28:18;;;;;;;35.80;7.10;;;;;;;5.24;100.00;101098.84;10459960;28;20037;-87
2022/11/25 07:33:19;;;;;;;21.35;7.22;;;;;;;5.17;100.00;101099.19;10456012;28;20044;-84
2022/11/25 07:38:19;;;;;;;19.23;6.82;;;;;;;5.17;100.00;101106.97;10463863;28;20048;-87
2022/11/25 07:43:20;;;;;;;17.38;6.78;;;;;;;5.18;100.00;101121.75;10442723;28;20083;-89
2022/11/25 07:48:20;;;;;;;19.48;9.07;;;;;;;5.23;100.00;101141.16;10467215;28;20106;-90
2022/11/25 07:53:21;;;;;;;20.63;7.13;;;;;;;5.44;100.00;101140.91;10479787;28;20562;-92
2022/11/25 07:58:21;;;;;;;24.83;11.88;;;;;;;5.65;100.00;101162.34;10459667;28;20453;-89
2022/11/25 08:03:22;;;;;;;52.72;35.03;;;;;;;5.73;100.00;101160.28;10490107;28;20037;-87
2022/11/25 08:08:22;;;;;;;14.18;7.70;;;;;;;5.77;100.00;101167.50;10453250;28;20400;-88
2022/11/25 08:13:23;;;;;;;15.85;8.05;;;;;;;5.82;100.00;101167.84;10450061;28;20041;-86
2022/11/25 08:18:23;;;;;;;52.78;27.92;;;;;;;5.91;100.00;101181.50;10448021;28;20083;-84
2022/11/25 08:23:24;;;;;;;24.92;11.80;;;;;;;6.12;100.00;101187.34;10448245;28;20071;-82
2022/11/25 08:28:24;;;;;;;25.58;8.07;;;;;;;6.15;100.00;101187.56;10447975;28;20473;-83
2022/11/25 08:33:25;;;;;;;22.73;9.32;;;;;;;6.11;100.00;101192.44;10464552;28;20051;-83
2022/11/25 08:38:26;;;;;;;18.45;7.28;;;;;;;6.12;100.00;101195.13;10467697;28;20075;-84
2022/11/25 08:43:26;;;;;;;42.80;9.85;;;;;;;6.11;100.00;101208.03;10448550;28;20098;-83
2022/11/25 08:48:27;;;;;;;18.92;7.35;;;;;;;6.15;100.00;101207.47;10446754;28;20622;-83
2022/11/25 08:53:27;;;;;;;23.73;9.38;;;;;;;6.21;100.00;101215.69;10447401;28;20086;-83
2022/11/25 08:58:28;;;;;;;11.73;7.22;;;;;;;6.27;100.00;101213.53;10429278;28;20033;-82
2022/11/25 09:03:31;;;;;;;30.40;11.02;;;;;;;6.47;100.00;101225.31;10448789;28;20045;-83
2022/11/25 09:08:32;;;;;;;22.33;10.05;;;;;;;6.66;100.00;101242.19;10445079;28;20493;-83
2022/11/25 09:13:33;;;;;;;25.40;7.88;;;;;;;6.93;100.00;101238.81;10430266;28;20029;-83
2022/11/25 09:18:35;;;;;;;25.52;7.85;;;;;;;7.07;100.00;101244.94;10447301;28;20452;-83
2022/11/25 09:23:37;;;;;;;16.90;7.35;;;;;;;7.26;100.00;101253.19;10428872;28;20060;-83
2022/11/25 09:28:43;;;;;;;21.98;6.43;;;;;;;7.44;100.00;101268.25;10428766;28;20067;-84
2022/11/25 09:33:44;;;;;;;15.20;5.50;;;;;;;7.77;100.00;101266.06;10445297;28;20086;-82
2022/11/25 09:38:45;;;;;;;13.77;6.00;;;;;;;8.21;100.00;101268.03;10445211;28;20091;-82
2022/11/25 09:49:17;;;;;;;12.38;4.13;;;;;;;12.48;89.25;101211.72;10432034;28;20075;-83
2022/11/25 09:54:33;;;;;;;12.18;4.03;;;;;;;13.76;76.77;101225.94;10445151;28;20039;-83
2022/11/25 10:00:02;;;;;;;14.88;4.25;;;;;;;14.67;70.34;101236.44;10444383;28;20033;-84
2022/11/25 10:05:14;;;;;;;10.80;3.72;;;;;;;14.63;69.01;101245.06;10439531;28;20049;-84
2022/11/25 10:10:32;;;;;;;14.75;5.45;;;;;;;14.65;67.41;101246.00;10451092;28;20040;-83
2022/11/25 10:15:34;;;;;;;9.75;3.97;;;;;;;14.72;65.48;101253.34;10469427;28;20036;-83
2022/11/25 10:20:36;;;;;;;13.40;3.58;;;;;;;14.86;65.93;101250.31;10442976;28;20041;-83
2022/11/25 10:25:38;;;;;;;14.17;4.77;;;;;;;15.62;62.85;101255.53;10418750;28;20470;-84
2022/11/25 10:30:47;;;;;;;;;;;;;;;15.68;62.64;101256.66;10418481;28;20406;-82
2022/11/25 10:35:57;;;;;;;11.35;4.10;;;;;;;15.33;63.53;101255.44;10443184;28;19917;-83
2022/11/25 10:40:58;;;;;;;10.13;3.38;;;;;;;15.79;61.33;101270.19;10417709;28;20107;-81
2022/11/25 10:46:20;;;;;;;11.02;3.75;;;;;;;16.04;60.74;101284.19;10384940;28;20092;-86
2022/11/25 10:51:33;;;;;;;11.77;3.85;;;;;;;15.04;61.46;101287.88;10442151;28;20067;-81
2022/11/25 10:56:50;;;;;;;9.57;3.70;;;;;;;14.03;66.91;101293.66;10406751;28;20048;-85
2022/11/25 11:01:52;;;;;;;10.85;4.70;;;;;;;13.32;69.39;101299.47;10409397;28;21746;-85
2022/11/25 11:06:52;;;;;;;12.90;4.07;;;;;;;12.38;74.04;101312.78;10439430;28;20032;-85
2022/11/25 11:11:53;;;;;;;13.00;3.10;;;;;;;13.03;72.85;101309.59;10457317;28;20037;-85
2022/11/25 11:16:55;;;;;;;9.07;3.30;;;;;;;13.51;71.86;101316.97;10455462;28;20053;-84
2022/11/25 11:21:56;;;;;;;7.95;2.85;;;;;;;14.40;67.49;101326.72;10438377;28;20170;-84
2022/11/25 11:27:21;;;;;;;10.52;3.45;;;;;;;13.52;68.32;101326.66;10439722;28;20102;-83
2022/11/25 11:32:23;;;;;;;10.55;3.63;;;;;;;12.01;75.03;101347.75;10449120;28;20533;-84
2022/11/25 11:37:35;;;;;;;7.50;3.15;;;;;;;12.56;71.22;101349.50;10438976;28;20047;-82
2022/11/25 11:43:01;;;;;;;15.55;3.85;;;;;;;13.31;69.54;101343.25;10406506;28;20187;-82
2022/11/25 11:48:12;;;;;;;15.30;3.22;;;;;;;12.68;71.42;101348.28;10443877;28;20046;-84
2022/11/25 11:53:29;;;;;;;9.63;3.10;;;;;;;12.54;74.42;101351.16;10458820;28;20085;-83
2022/11/25 11:58:48;;;;;;;14.10;3.28;;;;;;;13.89;68.32;101358.88;10437119;28;20048;-82
2022/11/25 12:03:54;;;;;;;11.13;2.40;;;;;;;13.83;66.13;101356.91;10443013;28;20095;-82
2022/11/25 12:09:15;;;;;;;8.13;2.42;;;;;;;13.20;66.42;101371.69;10448491;28;20051;-83
2022/11/25 12:14:31;;;;;;;13.25;4.30;;;;;;;12.85;68.40;101383.22;10442363;28;20052;-83
2022/11/25 12:20:02;;;;;;;13.07;3.10;;;;;;;13.26;68.92;101394.72;10438335;28;20029;-83
2022/11/25 12:25:20;;;;;;;8.48;3.08;;;;;;;14.23;63.19;101384.88;10476006;28;20045;-82
2022/11/25 12:30:21;;;;;;;14.98;4.68;;;;;;;14.27;62.15;101385.88;10434724;28;20091;-82
2022/11/25 12:35:28;;;;;;;6.57;2.50;;;;;;;13.85;63.62;101401.66;10439309;28;20053;-84
2022/11/25 12:40:39;;;;;;;7.57;3.15;;;;;;;13.57;64.68;101392.59;10445133;28;20041;-85
2022/11/25 12:45:40;;;;;;;10.53;2.37;;;;;;;13.69;65.45;101395.75;10442119;28;20083;-85
2022/11/25 12:50:50;;;;;;;9.35;2.67;;;;;;;14.09;63.06;101407.97;10447278;28;20070;-84
2022/11/25 12:55:50;;;;;;;11.13;2.33;;;;;;;14.02;62.98;101415.56;10448524;28;20143;-84
2022/11/25 13:01:06;;;;;;;5.97;2.72;;;;;;;13.30;64.07;101409.81;10430347;28;20044;-83
2022/11/25 13:06:27;;;;;;;9.10;3.08;;;;;;;12.82;66.72;101433.00;10452345;28;20052;-84
2022/11/25 13:11:56;;;;;;;9.60;2.17;;;;;;;12.44;69.17;101428.59;10432476;28;20098;-82
2022/11/25 13:16:58;;;;;;;8.50;2.70;;;;;;;11.50;72.62;101447.38;10445770;28;20040;-81
2022/11/25 13:22:05;;;;;;;6.33;1.90;;;;;;;10.55;77.75;101450.97;10446470;28;20033;-81
2022/11/25 13:27:30;;;;;;;11.23;3.58;;;;;;;10.38;79.41;101460.47;10445970;28;20283;-85
2022/11/25 13:32:32;;;;;;;11.60;3.53;;;;;;;10.32;81.41;101478.41;10444710;28;20025;-83
2022/11/25 13:37:38;;;;;;;5.82;2.25;;;;;;;10.19;82.65;101476.78;10445223;28;20098;-83
2022/11/25 13:42:42;;;;;;;9.88;3.80;;;;;;;10.11;83.20;101486.81;10444159;28;20025;-86
2022/11/25 13:47:46;;;;;;;7.68;2.20;;;;;;;10.12;84.00;101499.06;10446824;28;20037;-82
2022/11/25 13:52:57;;;;;;;7.90;2.15;;;;;;;10.10;83.19;101499.78;10403424;28;20072;-85
2022/11/25 13:58:02;;;;;;;22.02;4.05;;;;;;;10.03;83.46;101506.38;10386722;28;20485;-83
2022/11/25 14:03:18;;;;;;;8.60;2.22;;;;;;;10.07;85.00;101504.81;10402743;28;20083;-82
2022/11/25 14:08:27;;;;;;;7.05;2.78;;;;;;;10.23;83.50;101506.66;10424484;28;20128;-83
2022/11/25 14:13:49;;;;;;;14.25;3.47;;;;;;;10.18;84.62;101511.59;10445339;28;20138;-85
2022/11/25 14:19:29;;;;;;;5.77;2.33;;;;;;;9.89;84.27;101515.09;10445706;28;20052;-83
2022/11/25 14:24:48;;;;;;;6.97;2.33;;;;;;;9.77;86.44;101530.91;10483816;28;20499;-84
2022/11/25 14:29:55;;;;;;;7.80;2.92;;;;;;;9.74;86.72;101531.63;10468299;28;20036;-86
2022/11/25 14:34:56;;;;;;;6.85;2.45;;;;;;;9.67;87.88;101538.19;10467888;28;20082;-85
2022/11/25 14:40:12;;;;;;;14.68;5.32;;;;;;;9.53;88.50;101544.25;10484071;28;20040;-84
2022/11/25 14:45:30;;;;;;;13.05;4.28;;;;;;;9.42;89.40;101551.44;10449293;28;20376;-87
2022/11/25 14:50:30;;;;;;;17.42;3.20;;;;;;;9.27;90.61;101556.56;10442003;28;20084;-87
2022/11/25 14:55:31;;;;;;;13.82;4.25;;;;;;;9.15;91.18;101580.22;10409375;28;20034;-88
2022/11/25 15:00:31;;;;;;;16.33;4.82;;;;;;;9.01;92.75;101574.06;10400760;28;20033;-88
2022/11/25 15:05:36;;;;;;;9.25;3.13;;;;;;;8.94;93.16;101590.16;10427822;28;20562;-89
2022/11/25 15:10:38;;;;;;;12.88;2.90;;;;;;;8.94;92.59;101606.72;10464227;28;20040;-88
2022/11/25 15:15:39;;;;;;;8.88;3.95;;;;;;;8.95;92.19;101610.22;10450632;28;20056;-89
2022/11/25 15:20:39;;;;;;;8.73;3.15;;;;;;;9.00;91.71;101616.66;10423920;28;20047;-89
2022/11/25 15:25:50;;;;;;;14.15;2.83;;;;;;;8.98;90.70;101618.25;10440242;28;20113;-88
2022/11/25 15:30:58;;;;;;;13.48;4.15;;;;;;;8.77;91.88;101630.81;10428007;28;20052;-85
2022/11/25 15:35:59;;;;;;;13.07;4.47;;;;;;;8.66;92.99;101643.13;10436872;28;20043;-82
2022/11/25 15:40:59;;;;;;;20.60;5.05;;;;;;;8.50;92.98;101644.69;10468205;28;20531;-87
2022/11/25 15:46:03;;;;;;;11.63;4.88;;;;;;;8.19;93.80;101660.78;10421987;28;20047;-87
2022/11/25 15:51:27;;;;;;;16.80;4.53;;;;;;;7.92;96.38;101673.66;10422863;28;20040;-87
2022/11/25 15:56:27;;;;;;;9.43;4.68;;;;;;;7.77;98.30;101665.69;10426104;28;20057;-85
2022/11/25 16:01:28;;;;;;;11.45;4.78;;;;;;;7.57;99.01;101679.84;10399170;28;20430;-87
2022/11/25 16:06:29;;;;;;;20.83;5.53;;;;;;;7.24;100.00;101697.41;10380063;28;20045;-87
2022/11/25 16:11:32;;;;;;;22.23;7.63;;;;;;;7.22;100.00;101706.81;10381760;28;20052;-87
2022/11/25 16:16:32;;;;;;;10.18;4.65;;;;;;;7.24;100.00;101715.63;10435019;28;20392;-88
2022/11/25 16:21:36;;;;;;;17.92;5.05;;;;;;;7.01;100.00;101720.03;10448929;28;20124;-87
2022/11/25 16:26:54;;;;;;;19.40;5.70;;;;;;;6.83;100.00;101729.97;10470518;28;20470;-88
2022/11/25 16:31:54;;;;;;;20.85;7.35;;;;;;;6.67;100.00;101746.06;10439570;28;20123;-88
2022/11/25 16:36:55;;;;;;;18.40;5.00;;;;;;;6.68;100.00;101749.59;10446319;28;20037;-87
2022/11/25 16:41:57;;;;;;;20.60;5.03;;;;;;;6.57;100.00;101764.34;10486004;28;20078;-91
2022/11/25 16:46:57;;;;;;;;;;;;;;;6.43;100.00;101768.47;10460994;28;20040;-90
2022/11/25 16:51:58;;;;;;;15.65;9.38;;;;;;;6.55;100.00;101782.44;10466129;28;19943;-90
2022/11/25 16:56:58;;;;;;;13.00;5.00;;;;;;;6.58;100.00;101793.09;10463053;28;20038;-89
2022/11/25 17:01:59;;;;;;;14.38;5.32;;;;;;;6.42;100.00;101801.34;10457526;28;20495;-87
2022/11/25 17:06:59;;;;;;;14.55;5.22;;;;;;;6.33;100.00;101813.63;10439816;28;20033;-90
2022/11/25 17:12:00;;;;;;;20.67;5.45;;;;;;;6.44;100.00;101822.31;10469090;28;20055;-90
2022/11/25 17:17:00;;;;;;;14.60;7.45;;;;;;;6.73;100.00;101842.81;10459602;28;20056;-90
2022/11/25 17:22:01;;;;;;;20.63;6.53;;;;;;;6.87;100.00;101841.31;10467453;28;20040;-92
2022/11/25 17:27:03;;;;;;;14.90;6.55;;;;;;;7.08;100.00;101846.38;10469268;28;20052;-89
2022/11/25 17:32:03;;;;;;;20.33;6.07;;;;;;;7.12;100.00;101848.41;10455192;28;20075;-91
2022/11/25 17:37:15;;;;;;;15.63;5.88;;;;;;;7.19;100.00;101868.94;10468404;28;20131;-89
2022/11/25 17:42:16;;;;;;;19.88;6.80;;;;;;;7.17;100.00;101872.19;10470189;28;20044;-90
2022/11/25 17:47:17;;;;;;;23.27;6.37;;;;;;;7.20;100.00;101886.38;10433697;28;20091;-93
2022/11/25 17:52:17;;;;;;;18.52;5.85;;;;;;;7.20;100.00;101891.56;10449936;28;20272;-88
2022/11/25 17:57:19;;;;;;;23.35;8.55;;;;;;;7.15;100.00;101907.59;10464091;28;20037;-87
2022/11/25 18:02:20;;;;;;;16.95;6.20;;;;;;;6.89;100.00;101919.47;10448436;28;20401;-94
2022/11/25 18:07:21;;;;;;;10.55;5.25;;;;;;;6.64;100.00;101929.63;10465653;28;20051;-92
2022/11/25 18:12:26;;;;;;;12.52;5.22;;;;;;;6.64;100.00;101940.94;10474921;28;20075;-94
2022/11/25 18:17:26;;;;;;;14.48;6.10;;;;;;;6.72;100.00;101949.38;10454709;28;20045;-95
2022/11/25 18:22:29;;;;;;;36.53;15.20;;;;;;;6.54;100.00;101951.38;10451160;28;20068;-89
2022/11/25 18:27:30;;;;;;;;;;;;;;;6.45;100.00;101967.16;10471317;28;20476;-88
2022/11/25 18:32:31;;;;;;;24.00;9.47;;;;;;;6.16;100.00;101966.53;10444637;28;20373;-88
2022/11/25 18:37:31;;;;;;;48.67;10.07;;;;;;;5.85;100.00;101971.75;10425370;28;20099;-88
2022/11/25 18:42:32;;;;;;;21.92;9.23;;;;;;;5.71;100.00;101978.38;10478612;28;20063;-89
2022/11/25 18:47:32;;;;;;;17.33;8.90;;;;;;;5.75;100.00;101982.13;10460844;28;20124;-94
2022/11/25 18:52:33;;;;;;;20.10;9.88;;;;;;;5.66;100.00;102000.47;10482166;28;20033;-93
2022/11/25 18:57:34;;;;;;;17.55;8.68;;;;;;;5.61;100.00;102016.41;10475553;28;20611;-87
2022/11/25 19:02:34;;;;;;;20.80;8.13;;;;;;;5.54;100.00;102022.78;10476849;28;20514;-86
2022/11/25 19:07:35;;;;;;;25.70;10.13;;;;;;;5.45;100.00;102038.44;10452877;28;20045;-86
2022/11/25 19:12:35;;;;;;;19.05;7.97;;;;;;;5.32;100.00;102041.69;10450023;28;20051;-83
2022/11/25 19:17:36;;;;;;;19.48;9.52;;;;;;;5.29;100.00;102047.50;10437782;28;20559;-84
2022/11/25 19:22:36;;;;;;;20.38;11.10;;;;;;;5.23;100.00;102054.75;10439810;28;20082;-89
2022/11/25 19:27:43;;;;;;;48.58;19.77;;;;;;;5.23;100.00;102059.94;10441643;28;20420;-81
2022/11/25 19:32:47;;;;;;;19.35;10.15;;;;;;;5.10;100.00;102068.34;10441794;28;20396;-87
2022/11/25 19:37:48;;;;;;;23.98;9.68;;;;;;;4.86;100.00;102080.00;10472873;28;20052;-86
2022/11/25 19:42:48;;;;;;;27.60;9.15;;;;;;;4.82;100.00;102077.91;10442691;28;20124;-87
2022/11/25 19:47:49;;;;;;;31.50;11.77;;;;;;;4.68;100.00;102092.22;10430209;28;20044;-86
2022/11/25 19:52:50;;;;;;;25.10;10.43;;;;;;;4.71;100.00;102097.69;10453054;28;20036;-87
2022/11/25 19:57:51;;;;;;;30.35;11.30;;;;;;;4.83;100.00;102114.38;10450254;28;20121;-88
2022/11/25 20:02:52;;;;;;;39.13;15.57;;;;;;;4.79;100.00;102113.94;10441212;28;22335;-86
2022/11/25 20:07:53;;;;;;;33.15;13.32;;;;;;;4.70;100.00;102114.94;10423010;28;20040;-87
2022/11/25 20:12:54;;;;;;;33.08;19.88;;;;;;;4.58;100.00;102134.53;10439980;28;20488;-87
2022/11/25 20:17:57;;;;;;;91.30;54.83;;;;;;;4.48;100.00;102138.00;10435703;28;20051;-86
2022/11/25 20:23:39;;;;;;;24.20;11.35;;;;;;;4.37;100.00;102157.72;10454198;28;20443;-86
2022/11/25 20:28:40;;;;;;;26.08;11.80;;;;;;;4.23;100.00;102159.03;10410551;28;20484;-88
2022/11/25 20:33:40;;;;;;;33.75;12.45;;;;;;;4.16;100.00;102167.00;10455541;28;20071;-87
2022/11/25 20:38:46;;;;;;;27.60;13.05;;;;;;;4.07;100.00;102168.72;10441012;28;20045;-84
2022/11/25 20:43:47;;;;;;;33.15;13.15;;;;;;;4.20;100.00;102171.69;10440203;28;20119;-86
2022/11/25 20:48:50;;;;;;;32.53;13.13;;;;;;;4.22;100.00;102185.72;10447133;28;20047;-85
2022/11/25 20:54:00;;;;;;;25.83;13.43;;;;;;;4.01;100.00;102194.03;10468873;28;20443;-85
2022/11/25 20:59:00;;;;;;;27.95;11.35;;;;;;;3.84;100.00;102206.28;10445722;28;20041;-86
2022/11/25 21:04:01;;;;;;;40.30;18.33;;;;;;;4.05;100.00;102207.41;10446825;28;20063;-87
2022/11/25 21:09:01;;;;;;;30.85;13.77;;;;;;;3.92;100.00;102214.78;10438180;28;20040;-87
2022/11/25 21:14:02;;;;;;;38.20;13.93;;;;;;;3.80;100.00;102222.28;10461672;28;20037;-88
2022/11/25 21:19:02;;;;;;;35.22;16.52;;;;;;;3.71;100.00;102230.06;10462969;28;20110;-85
2022/11/25 21:24:15;;;;;;;34.30;16.58;;;;;;;3.73;100.00;102232.81;10460709;28;20503;-85
2022/11/25 21:29:16;;;;;;;26.92;13.95;;;;;;;3.57;100.00;102235.56;10461449;28;20125;-85
2022/11/25 21:34:16;;;;;;;28.20;12.75;;;;;;;3.47;100.00;102237.25;10434859;28;20048;-86
2022/11/25 21:39:28;;;;;;;27.75;15.20;;;;;;;3.42;100.00;102253.13;10464076;28;20055;-85
2022/11/25 21:44:38;;;;;;;30.05;14.13;;;;;;;3.29;100.00;102266.50;10459089;28;20048;-85
2022/11/25 21:49:39;;;;;;;32.22;14.80;;;;;;;3.31;100.00;102265.91;10430515;28;20370;-85
2022/11/25 21:54:39;;;;;;;29.35;15.60;;;;;;;3.38;100.00;102278.69;10445129;28;20060;-85
2022/11/25 21:59:40;;;;;;;44.00;16.67;;;;;;;3.36;100.00;102277.63;10423650;28;20041;-85
2022/11/25 22:04:40;;;;;;;35.60;19.50;;;;;;;3.20;100.00;102280.34;10427540;28;20045;-85
2022/11/25 22:09:41;;;;;;;32.67;16.60;;;;;;;3.20;100.00;102295.88;10437430;28;20041;-82
2022/11/25 22:14:41;;;;;;;30.65;16.65;;;;;;;3.12;100.00;102299.38;10403723;28;20116;-84
2022/11/25 22:19:42;;;;;;;46.33;18.70;;;;;;;3.19;100.00;102303.50;10434219;28;20505;-84
2022/11/25 22:24:42;;;;;;;39.05;20.23;;;;;;;3.44;100.00;102309.44;10425182;28;20048;-84
2022/11/25 22:29:43;;;;;;;37.33;17.38;;;;;;;3.29;100.00;102305.31;10433193;28;20432;-84
2022/11/25 22:34:44;;;;;;;40.58;19.00;;;;;;;3.42;100.00;102317.81;10455372;28;20120;-85
2022/11/25 22:39:44;;;;;;;39.10;18.25;;;;;;;3.12;100.00;102327.81;10462644;28;20041;-88
2022/11/25 22:44:46;;;;;;;34.50;17.92;;;;;;;3.02;100.00;102326.00;10485210;28;20374;-89
2022/11/25 22:49:46;;;;;;;38.00;17.93;;;;;;;2.96;100.00;102333.13;10441788;28;20071;-89
2022/11/25 22:54:48;;;;;;;35.67;17.35;;;;;;;2.76;100.00;102339.75;10443476;28;20128;-90
2022/11/25 22:59:48;;;;;;;37.20;17.93;;;;;;;2.87;100.00;102339.94;10482613;28;20036;-89
2022/11/25 23:04:53;;;;;;;36.72;19.30;;;;;;;2.77;100.00;102349.34;10482744;28;20275;-89
2022/11/25 23:09:55;;;;;;;35.70;19.33;;;;;;;2.60;100.00;102362.19;10469176;28;20045;-90